Flugplatz Büllingen (EBBN)

Hier findest Du alle Informationen zum Flugplatz Büllingen (EBBN).

Informationen für Piloten zum Flugplatz Büllingen

Hier findest Du alle relevanten Informationen, die Du als Pilot benötigst, um Büllingen anzufliegen.

Flugplatz: Büllingen ICAO-Code: EBBN
Frequenz Turm: 123.400 Mhz GAFOR Gebiet: 37
Frequenz Ground: 123.400 Mhz Mogas: nein
Platzrunde: N 3000 ft Landegebühr: 0 €
Platzhöhe: Sunrise: 03:26 Uhr UTC
Pisten: 12/30 - 300 m x 30 m, GRAS Sunset: 19:51 Uhr UTC

Flugwetter am Flugplatz Büllingen

Die METAR Information stammen aus EDDK (79.10 km entfernt).

METAR Code:
2022/06/28 21:50
EDDK 282150Z AUTO 06008KT CAVOK 19/12 Q1017 NOSIG

Flugschulen am Flugplatz Büllingen

Am Flugplatz Büllingen gibt es leider keine Flugschule.

Benachbarte Flugplätze und Flugschulen

Es gibt 6 weitere Flugplätze in einem Umkreis von 50 km um den Flugplatz Büllingen.

Jetzt anmelden

Passwort vergessen

Umfrage Archiv

Sendet Ihr ADS-B und/oder FLARM?

Ja
83.1 %
Nein
16.9 %
Stimmen: 177 | Diskussion
Anzeige: Roland Aircraft
Statistik Alle Mitglieder

Aktuell sind 63 Besucher online.

Anzeige: ULPower Aero Engines Anzeige: Pocket FMS